sensor_id;sensor_type;location;lat;lon;timestamp;P1;durP1;ratioP1;P2;durP2;ratioP2
58015;SDS011;43809;52.110;20.964;2022-07-03T00:00:25;0.70;;;0.70;;
58015;SDS011;43809;52.110;20.964;2022-07-03T00:02:25;0.50;;;0.50;;
58015;SDS011;43809;52.110;20.964;2022-07-03T00:04:25;1.07;;;0.80;;
58015;SDS011;43809;52.110;20.964;2022-07-03T00:06:26;0.85;;;0.80;;
58015;SDS011;43809;52.110;20.964;2022-07-03T00:08:26;2.42;;;0.90;;
58015;SDS011;43809;52.110;20.964;2022-07-03T00:10:26;0.97;;;0.90;;
58015;SDS011;43809;52.110;20.964;2022-07-03T00:12:27;0.70;;;0.70;;
58015;SDS011;43809;52.110;20.964;2022-07-03T00:14:27;0.60;;;0.60;;
58015;SDS011;43809;52.110;20.964;2022-07-03T00:16:27;0.93;;;0.82;;
58015;SDS011;43809;52.110;20.964;2022-07-03T00:18:28;2.00;;;1.00;;
58015;SDS011;43809;52.110;20.964;2022-07-03T00:20:29;2.20;;;1.25;;
58015;SDS011;43809;52.110;20.964;2022-07-03T00:22:30;1.10;;;1.00;;
58015;SDS011;43809;52.110;20.964;2022-07-03T00:26:34;1.33;;;1.20;;
58015;SDS011;43809;52.110;20.964;2022-07-03T00:28:34;1.30;;;1.20;;
58015;SDS011;43809;52.110;20.964;2022-07-03T00:30:35;2.00;;;1.20;;
58015;SDS011;43809;52.110;20.964;2022-07-03T00:32:37;1.30;;;1.20;;
58015;SDS011;43809;52.110;20.964;2022-07-03T00:36:38;1.50;;;1.40;;
58015;SDS011;43809;52.110;20.964;2022-07-03T00:38:39;1.60;;;1.50;;
58015;SDS011;43809;52.110;20.964;2022-07-03T00:40:39;1.23;;;1.13;;
58015;SDS011;43809;52.110;20.964;2022-07-03T00:42:39;1.73;;;1.40;;
58015;SDS011;43809;52.110;20.964;2022-07-03T00:44:44;1.70;;;1.00;;
58015;SDS011;43809;52.110;20.964;2022-07-03T00:46:44;1.10;;;1.00;;
58015;SDS011;43809;52.110;20.964;2022-07-03T00:50:48;1.00;;;0.90;;
58015;SDS011;43809;52.110;20.964;2022-07-03T00:52:48;1.47;;;1.07;;
58015;SDS011;43809;52.110;20.964;2022-07-03T00:54:51;1.50;;;1.30;;
58015;SDS011;43809;52.110;20.964;2022-07-03T00:56:52;2.03;;;1.30;;
58015;SDS011;43809;52.110;20.964;2022-07-03T00:58:55;1.45;;;1.35;;
58015;SDS011;43809;52.110;20.964;2022-07-03T01:00:56;2.15;;;1.40;;
58015;SDS011;43809;52.110;20.964;2022-07-03T01:03:07;1.85;;;1.45;;
58015;SDS011;43809;52.110;20.964;2022-07-03T01:05:25;1.58;;;1.48;;
58015;SDS011;43809;52.110;20.964;2022-07-03T01:07:33;2.25;;;1.50;;
58015;SDS011;43809;52.110;20.964;2022-07-03T01:09:39;1.92;;;1.80;;
58015;SDS011;43809;52.110;20.964;2022-07-03T01:11:46;4.80;;;1.63;;
58015;SDS011;43809;52.110;20.964;2022-07-03T01:16:09;1.25;;;1.15;;
58015;SDS011;43809;52.110;20.964;2022-07-03T01:20:31;1.40;;;1.30;;
58015;SDS011;43809;52.110;20.964;2022-07-03T01:24:42;1.60;;;1.50;;
58015;SDS011;43809;52.110;20.964;2022-07-03T01:26:45;1.58;;;1.48;;
58015;SDS011;43809;52.110;20.964;2022-07-03T01:28:46;1.63;;;1.52;;
58015;SDS011;43809;52.110;20.964;2022-07-03T01:30:48;1.95;;;1.60;;
58015;SDS011;43809;52.110;20.964;2022-07-03T01:32:59;1.55;;;1.45;;
58015;SDS011;43809;52.110;20.964;2022-07-03T01:35:00;1.73;;;1.23;;
58015;SDS011;43809;52.110;20.964;2022-07-03T01:37:00;1.55;;;1.45;;
58015;SDS011;43809;52.110;20.964;2022-07-03T01:39:02;1.30;;;1.20;;
58015;SDS011;43809;52.110;20.964;2022-07-03T01:41:03;1.50;;;1.40;;
58015;SDS011;43809;52.110;20.964;2022-07-03T01:43:04;1.65;;;1.30;;
58015;SDS011;43809;52.110;20.964;2022-07-03T01:45:05;1.75;;;1.27;;
58015;SDS011;43809;52.110;20.964;2022-07-03T01:47:07;1.33;;;1.23;;
58015;SDS011;43809;52.110;20.964;2022-07-03T01:49:07;2.13;;;1.42;;
58015;SDS011;43809;52.110;20.964;2022-07-03T01:51:08;1.20;;;1.10;;
58015;SDS011;43809;52.110;20.964;2022-07-03T01:53:10;1.40;;;1.30;;
58015;SDS011;43809;52.110;20.964;2022-07-03T01:55:11;1.10;;;1.00;;
58015;SDS011;43809;52.110;20.964;2022-07-03T01:57:11;2.28;;;1.60;;
58015;SDS011;43809;52.110;20.964;2022-07-03T01:59:11;1.45;;;1.35;;
58015;SDS011;43809;52.110;20.964;2022-07-03T02:01:20;1.48;;;1.38;;
58015;SDS011;43809;52.110;20.964;2022-07-03T02:03:28;2.03;;;1.92;;
58015;SDS011;43809;52.110;20.964;2022-07-03T02:05:31;1.95;;;1.35;;
58015;SDS011;43809;52.110;20.964;2022-07-03T02:07:47;1.30;;;1.20;;
58015;SDS011;43809;52.110;20.964;2022-07-03T02:09:50;1.30;;;1.20;;
58015;SDS011;43809;52.110;20.964;2022-07-03T02:11:56;1.65;;;1.42;;
58015;SDS011;43809;52.110;20.964;2022-07-03T02:14:14;1.42;;;1.33;;
58015;SDS011;43809;52.110;20.964;2022-07-03T02:16:17;1.50;;;1.40;;
58015;SDS011;43809;52.110;20.964;2022-07-03T02:20:20;1.00;;;1.00;;
58015;SDS011;43809;52.110;20.964;2022-07-03T02:22:25;0.98;;;0.98;;
58015;SDS011;43809;52.110;20.964;2022-07-03T02:24:26;1.00;;;1.00;;
58015;SDS011;43809;52.110;20.964;2022-07-03T02:26:29;1.15;;;1.05;;
58015;SDS011;43809;52.110;20.964;2022-07-03T02:28:34;1.40;;;1.30;;
58015;SDS011;43809;52.110;20.964;2022-07-03T02:30:42;1.33;;;1.23;;
58015;SDS011;43809;52.110;20.964;2022-07-03T02:34:45;2.00;;;1.20;;
58015;SDS011;43809;52.110;20.964;2022-07-03T02:36:46;3.15;;;2.20;;
58015;SDS011;43809;52.110;20.964;2022-07-03T02:38:51;3.40;;;2.67;;
58015;SDS011;43809;52.110;20.964;2022-07-03T02:45:12;3.15;;;2.85;;
58015;SDS011;43809;52.110;20.964;2022-07-03T02:47:23;3.30;;;3.00;;
58015;SDS011;43809;52.110;20.964;2022-07-03T02:51:34;3.13;;;2.50;;
58015;SDS011;43809;52.110;20.964;2022-07-03T02:53:38;3.00;;;2.70;;
58015;SDS011;43809;52.110;20.964;2022-07-03T02:55:39;2.45;;;2.25;;
58015;SDS011;43809;52.110;20.964;2022-07-03T02:57:41;2.38;;;2.17;;
58015;SDS011;43809;52.110;20.964;2022-07-03T02:59:45;2.20;;;2.00;;
58015;SDS011;43809;52.110;20.964;2022-07-03T03:01:57;2.22;;;2.03;;
58015;SDS011;43809;52.110;20.964;2022-07-03T03:04:12;1.77;;;1.67;;
58015;SDS011;43809;52.110;20.964;2022-07-03T03:06:14;2.55;;;2.05;;
58015;SDS011;43809;52.110;20.964;2022-07-03T03:10:23;2.00;;;1.70;;
58015;SDS011;43809;52.110;20.964;2022-07-03T03:12:28;1.70;;;1.60;;
58015;SDS011;43809;52.110;20.964;2022-07-03T03:14:32;2.90;;;1.60;;
58015;SDS011;43809;52.110;20.964;2022-07-03T03:16:36;1.67;;;1.58;;
58015;SDS011;43809;52.110;20.964;2022-07-03T03:18:38;1.70;;;1.60;;
58015;SDS011;43809;52.110;20.964;2022-07-03T03:20:39;2.33;;;1.50;;
58015;SDS011;43809;52.110;20.964;2022-07-03T03:24:56;2.35;;;1.35;;
58015;SDS011;43809;52.110;20.964;2022-07-03T03:26:57;1.30;;;1.20;;
58015;SDS011;43809;52.110;20.964;2022-07-03T03:28:58;1.27;;;1.10;;
58015;SDS011;43809;52.110;20.964;2022-07-03T03:30:58;2.65;;;1.52;;
58015;SDS011;43809;52.110;20.964;2022-07-03T03:32:59;1.58;;;1.15;;
58015;SDS011;43809;52.110;20.964;2022-07-03T03:34:59;2.53;;;1.50;;
58015;SDS011;43809;52.110;20.964;2022-07-03T03:36:59;1.27;;;1.17;;
58015;SDS011;43809;52.110;20.964;2022-07-03T03:39:01;1.40;;;1.02;;
58015;SDS011;43809;52.110;20.964;2022-07-03T03:41:01;1.20;;;1.08;;
58015;SDS011;43809;52.110;20.964;2022-07-03T03:43:02;2.15;;;1.13;;
58015;SDS011;43809;52.110;20.964;2022-07-03T03:45:03;1.42;;;0.88;;
58015;SDS011;43809;52.110;20.964;2022-07-03T03:47:03;0.90;;;0.90;;
58015;SDS011;43809;52.110;20.964;2022-07-03T03:49:03;1.17;;;1.08;;
58015;SDS011;43809;52.110;20.964;2022-07-03T03:51:04;0.73;;;0.70;;
58015;SDS011;43809;52.110;20.964;2022-07-03T03:53:04;0.77;;;0.77;;
58015;SDS011;43809;52.110;20.964;2022-07-03T03:55:05;1.17;;;1.02;;
58015;SDS011;43809;52.110;20.964;2022-07-03T03:57:24;1.40;;;1.10;;
58015;SDS011;43809;52.110;20.964;2022-07-03T03:59:24;1.15;;;1.00;;
58015;SDS011;43809;52.110;20.964;2022-07-03T04:01:25;0.95;;;0.90;;
58015;SDS011;43809;52.110;20.964;2022-07-03T04:03:28;1.15;;;0.90;;
58015;SDS011;43809;52.110;20.964;2022-07-03T04:05:29;1.23;;;0.80;;
58015;SDS011;43809;52.110;20.964;2022-07-03T04:07:29;0.80;;;0.80;;
58015;SDS011;43809;52.110;20.964;2022-07-03T04:09:29;0.73;;;0.73;;
58015;SDS011;43809;52.110;20.964;2022-07-03T04:11:29;1.58;;;0.88;;
58015;SDS011;43809;52.110;20.964;2022-07-03T04:13:30;2.22;;;1.02;;
58015;SDS011;43809;52.110;20.964;2022-07-03T04:15:30;1.02;;;0.90;;
58015;SDS011;43809;52.110;20.964;2022-07-03T04:17:30;0.90;;;0.90;;
58015;SDS011;43809;52.110;20.964;2022-07-03T04:19:30;1.87;;;1.30;;
58015;SDS011;43809;52.110;20.964;2022-07-03T04:21:31;1.85;;;1.20;;
58015;SDS011;43809;52.110;20.964;2022-07-03T04:23:31;1.23;;;1.13;;
58015;SDS011;43809;52.110;20.964;2022-07-03T04:25:31;1.63;;;0.95;;
58015;SDS011;43809;52.110;20.964;2022-07-03T04:27:32;1.17;;;1.02;;
58015;SDS011;43809;52.110;20.964;2022-07-03T04:29:32;1.23;;;0.70;;
58015;SDS011;43809;52.110;20.964;2022-07-03T04:31:32;1.40;;;1.30;;
58015;SDS011;43809;52.110;20.964;2022-07-03T04:33:32;0.90;;;0.90;;
58015;SDS011;43809;52.110;20.964;2022-07-03T04:35:38;0.90;;;0.90;;
58015;SDS011;43809;52.110;20.964;2022-07-03T04:37:39;1.58;;;0.98;;
58015;SDS011;43809;52.110;20.964;2022-07-03T04:39:42;1.13;;;0.90;;
58015;SDS011;43809;52.110;20.964;2022-07-03T04:41:42;1.58;;;1.10;;
58015;SDS011;43809;52.110;20.964;2022-07-03T04:43:42;1.23;;;1.13;;
58015;SDS011;43809;52.110;20.964;2022-07-03T04:45:42;2.10;;;1.20;;
58015;SDS011;43809;52.110;20.964;2022-07-03T04:47:43;1.20;;;1.10;;
58015;SDS011;43809;52.110;20.964;2022-07-03T04:49:43;0.90;;;0.80;;
58015;SDS011;43809;52.110;20.964;2022-07-03T04:51:43;1.77;;;0.97;;
58015;SDS011;43809;52.110;20.964;2022-07-03T04:53:43;1.63;;;1.33;;
58015;SDS011;43809;52.110;20.964;2022-07-03T04:55:43;1.10;;;0.90;;
58015;SDS011;43809;52.110;20.964;2022-07-03T04:57:44;2.17;;;0.90;;
58015;SDS011;43809;52.110;20.964;2022-07-03T04:59:44;3.30;;;1.13;;
58015;SDS011;43809;52.110;20.964;2022-07-03T05:01:44;1.17;;;1.00;;
58015;SDS011;43809;52.110;20.964;2022-07-03T05:03:44;2.13;;;1.13;;
58015;SDS011;43809;52.110;20.964;2022-07-03T05:05:44;1.00;;;0.90;;
58015;SDS011;43809;52.110;20.964;2022-07-03T05:07:44;1.73;;;0.90;;
58015;SDS011;43809;52.110;20.964;2022-07-03T05:09:45;1.25;;;0.90;;
58015;SDS011;43809;52.110;20.964;2022-07-03T05:11:45;1.63;;;0.83;;
58015;SDS011;43809;52.110;20.964;2022-07-03T05:13:45;0.70;;;0.65;;
58015;SDS011;43809;52.110;20.964;2022-07-03T05:15:45;1.10;;;0.50;;
58015;SDS011;43809;52.110;20.964;2022-07-03T05:17:46;0.63;;;0.60;;
58015;SDS011;43809;52.110;20.964;2022-07-03T05:19:46;0.90;;;0.50;;
58015;SDS011;43809;52.110;20.964;2022-07-03T05:21:46;0.80;;;0.50;;
58015;SDS011;43809;52.110;20.964;2022-07-03T05:23:46;1.53;;;0.60;;
58015;SDS011;43809;52.110;20.964;2022-07-03T05:25:46;1.58;;;0.73;;
58015;SDS011;43809;52.110;20.964;2022-07-03T05:27:47;0.80;;;0.60;;
58015;SDS011;43809;52.110;20.964;2022-07-03T05:29:50;0.70;;;0.45;;
58015;SDS011;43809;52.110;20.964;2022-07-03T05:31:50;2.60;;;0.70;;
58015;SDS011;43809;52.110;20.964;2022-07-03T05:33:50;0.90;;;0.53;;
58015;SDS011;43809;52.110;20.964;2022-07-03T05:35:50;1.83;;;0.80;;
58015;SDS011;43809;52.110;20.964;2022-07-03T05:37:51;0.90;;;0.43;;
58015;SDS011;43809;52.110;20.964;2022-07-03T05:39:51;1.43;;;0.47;;
58015;SDS011;43809;52.110;20.964;2022-07-03T05:41:54;1.23;;;0.60;;
58015;SDS011;43809;52.110;20.964;2022-07-03T05:43:54;1.27;;;0.50;;
58015;SDS011;43809;52.110;20.964;2022-07-03T05:45:54;0.97;;;0.50;;
58015;SDS011;43809;52.110;20.964;2022-07-03T05:47:54;1.73;;;0.60;;
58015;SDS011;43809;52.110;20.964;2022-07-03T05:49:55;1.40;;;0.50;;
58015;SDS011;43809;52.110;20.964;2022-07-03T05:51:55;1.67;;;0.60;;
58015;SDS011;43809;52.110;20.964;2022-07-03T05:53:55;0.43;;;0.30;;
58015;SDS011;43809;52.110;20.964;2022-07-03T05:55:56;1.30;;;0.70;;
58015;SDS011;43809;52.110;20.964;2022-07-03T05:57:56;0.90;;;0.63;;
58015;SDS011;43809;52.110;20.964;2022-07-03T05:59:56;0.70;;;0.43;;
58015;SDS011;43809;52.110;20.964;2022-07-03T06:01:56;1.13;;;0.50;;
58015;SDS011;43809;52.110;20.964;2022-07-03T06:03:56;1.57;;;0.53;;
58015;SDS011;43809;52.110;20.964;2022-07-03T06:05:58;0.90;;;0.43;;
58015;SDS011;43809;52.110;20.964;2022-07-03T06:07:58;0.90;;;0.70;;
58015;SDS011;43809;52.110;20.964;2022-07-03T06:09:59;0.50;;;0.50;;
58015;SDS011;43809;52.110;20.964;2022-07-03T06:11:59;1.80;;;0.50;;
58015;SDS011;43809;52.110;20.964;2022-07-03T06:13:59;1.20;;;0.50;;
58015;SDS011;43809;52.110;20.964;2022-07-03T06:15:59;2.20;;;0.50;;
58015;SDS011;43809;52.110;20.964;2022-07-03T06:17:59;1.60;;;0.50;;
58015;SDS011;43809;52.110;20.964;2022-07-03T06:20:00;1.23;;;0.50;;
58015;SDS011;43809;52.110;20.964;2022-07-03T06:22:00;2.37;;;0.70;;
58015;SDS011;43809;52.110;20.964;2022-07-03T06:29:22;1.55;;;0.60;;
58015;SDS011;43809;52.110;20.964;2022-07-03T06:31:25;1.13;;;0.50;;
58015;SDS011;43809;52.110;20.964;2022-07-03T06:33:26;0.80;;;0.55;;
58015;SDS011;43809;52.110;20.964;2022-07-03T06:35:26;1.53;;;0.50;;
58015;SDS011;43809;52.110;20.964;2022-07-03T06:37:27;0.70;;;0.57;;
58015;SDS011;43809;52.110;20.964;2022-07-03T06:39:31;2.10;;;0.63;;
58015;SDS011;43809;52.110;20.964;2022-07-03T06:41:31;2.00;;;0.80;;
58015;SDS011;43809;52.110;20.964;2022-07-03T06:43:31;2.30;;;0.50;;
58015;SDS011;43809;52.110;20.964;2022-07-03T06:45:34;0.70;;;0.30;;
58015;SDS011;43809;52.110;20.964;2022-07-03T06:47:53;0.53;;;0.50;;
58015;SDS011;43809;52.110;20.964;2022-07-03T06:49:53;1.52;;;0.60;;
58015;SDS011;43809;52.110;20.964;2022-07-03T06:51:53;1.20;;;0.67;;
58015;SDS011;43809;52.110;20.964;2022-07-03T06:53:54;1.63;;;0.70;;
58015;SDS011;43809;52.110;20.964;2022-07-03T06:55:54;2.90;;;0.77;;
58015;SDS011;43809;52.110;20.964;2022-07-03T06:57:54;1.70;;;0.53;;
58015;SDS011;43809;52.110;20.964;2022-07-03T06:59:54;1.97;;;0.70;;
58015;SDS011;43809;52.110;20.964;2022-07-03T07:01:54;2.13;;;0.90;;
58015;SDS011;43809;52.110;20.964;2022-07-03T07:03:55;0.50;;;0.50;;
58015;SDS011;43809;52.110;20.964;2022-07-03T07:05:55;1.00;;;0.57;;
58015;SDS011;43809;52.110;20.964;2022-07-03T07:07:55;0.70;;;0.50;;
58015;SDS011;43809;52.110;20.964;2022-07-03T07:09:56;1.00;;;0.60;;
58015;SDS011;43809;52.110;20.964;2022-07-03T07:11:56;1.83;;;0.60;;
58015;SDS011;43809;52.110;20.964;2022-07-03T07:13:56;8.07;;;0.70;;
58015;SDS011;43809;52.110;20.964;2022-07-03T07:15:57;0.97;;;0.60;;
58015;SDS011;43809;52.110;20.964;2022-07-03T07:17:57;0.40;;;0.40;;
58015;SDS011;43809;52.110;20.964;2022-07-03T07:19:57;1.67;;;0.70;;
58015;SDS011;43809;52.110;20.964;2022-07-03T07:21:57;0.83;;;0.50;;
58015;SDS011;43809;52.110;20.964;2022-07-03T07:23:58;1.13;;;0.60;;
58015;SDS011;43809;52.110;20.964;2022-07-03T07:25:58;1.27;;;0.63;;
58015;SDS011;43809;52.110;20.964;2022-07-03T07:27:58;1.50;;;0.63;;
58015;SDS011;43809;52.110;20.964;2022-07-03T07:29:58;3.90;;;0.77;;
58015;SDS011;43809;52.110;20.964;2022-07-03T07:31:58;1.37;;;0.70;;
58015;SDS011;43809;52.110;20.964;2022-07-03T07:33:59;0.87;;;0.60;;
58015;SDS011;43809;52.110;20.964;2022-07-03T07:35:59;1.23;;;0.50;;
58015;SDS011;43809;52.110;20.964;2022-07-03T07:37:59;1.23;;;0.60;;
58015;SDS011;43809;52.110;20.964;2022-07-03T07:39:59;0.63;;;0.40;;
58015;SDS011;43809;52.110;20.964;2022-07-03T07:42:00;1.17;;;0.57;;
58015;SDS011;43809;52.110;20.964;2022-07-03T07:44:00;1.57;;;0.50;;
58015;SDS011;43809;52.110;20.964;2022-07-03T07:46:00;1.13;;;0.77;;
58015;SDS011;43809;52.110;20.964;2022-07-03T07:48:00;1.60;;;0.50;;
58015;SDS011;43809;52.110;20.964;2022-07-03T07:50:00;1.53;;;0.73;;
58015;SDS011;43809;52.110;20.964;2022-07-03T07:52:01;1.47;;;0.60;;
58015;SDS011;43809;52.110;20.964;2022-07-03T07:54:01;0.93;;;0.60;;
58015;SDS011;43809;52.110;20.964;2022-07-03T07:56:01;0.85;;;0.55;;
58015;SDS011;43809;52.110;20.964;2022-07-03T07:58:01;0.93;;;0.57;;
58015;SDS011;43809;52.110;20.964;2022-07-03T08:00:08;0.85;;;0.52;;
58015;SDS011;43809;52.110;20.964;2022-07-03T08:02:09;1.65;;;0.73;;
58015;SDS011;43809;52.110;20.964;2022-07-03T08:04:28;0.88;;;0.70;;
58015;SDS011;43809;52.110;20.964;2022-07-03T08:06:47;1.20;;;0.70;;
58015;SDS011;43809;52.110;20.964;2022-07-03T08:08:47;0.60;;;0.60;;
58015;SDS011;43809;52.110;20.964;2022-07-03T08:10:48;0.87;;;0.47;;
58015;SDS011;43809;52.110;20.964;2022-07-03T08:12:48;1.50;;;0.60;;
58015;SDS011;43809;52.110;20.964;2022-07-03T08:14:48;1.73;;;0.80;;
58015;SDS011;43809;52.110;20.964;2022-07-03T08:16:48;0.90;;;0.60;;
58015;SDS011;43809;52.110;20.964;2022-07-03T08:18:49;0.50;;;0.50;;
58015;SDS011;43809;52.110;20.964;2022-07-03T08:20:49;1.00;;;0.50;;
58015;SDS011;43809;52.110;20.964;2022-07-03T08:22:50;1.40;;;0.53;;
58015;SDS011;43809;52.110;20.964;2022-07-03T08:24:50;0.80;;;0.52;;
58015;SDS011;43809;52.110;20.964;2022-07-03T08:26:50;0.40;;;0.40;;
58015;SDS011;43809;52.110;20.964;2022-07-03T08:28:50;1.03;;;0.50;;
58015;SDS011;43809;52.110;20.964;2022-07-03T08:30:50;2.00;;;0.80;;
58015;SDS011;43809;52.110;20.964;2022-07-03T08:32:51;0.90;;;0.70;;
58015;SDS011;43809;52.110;20.964;2022-07-03T08:34:53;1.40;;;0.60;;
58015;SDS011;43809;52.110;20.964;2022-07-03T08:36:53;0.73;;;0.50;;
58015;SDS011;43809;52.110;20.964;2022-07-03T08:38:53;0.90;;;0.70;;
58015;SDS011;43809;52.110;20.964;2022-07-03T08:40:53;0.90;;;0.67;;
58015;SDS011;43809;52.110;20.964;2022-07-03T08:42:54;0.93;;;0.60;;
58015;SDS011;43809;52.110;20.964;2022-07-03T08:44:55;1.15;;;0.63;;
58015;SDS011;43809;52.110;20.964;2022-07-03T08:46:56;1.57;;;0.60;;
58015;SDS011;43809;52.110;20.964;2022-07-03T08:48:59;1.00;;;0.70;;
58015;SDS011;43809;52.110;20.964;2022-07-03T08:51:01;1.27;;;0.60;;
58015;SDS011;43809;52.110;20.964;2022-07-03T08:53:02;0.52;;;0.50;;
58015;SDS011;43809;52.110;20.964;2022-07-03T08:55:03;2.23;;;0.73;;
58015;SDS011;43809;52.110;20.964;2022-07-03T08:57:04;1.50;;;0.73;;
58015;SDS011;43809;52.110;20.964;2022-07-03T08:59:05;1.80;;;0.90;;
58015;SDS011;43809;52.110;20.964;2022-07-03T09:01:06;1.70;;;0.63;;
58015;SDS011;43809;52.110;20.964;2022-07-03T09:03:10;1.33;;;0.60;;
58015;SDS011;43809;52.110;20.964;2022-07-03T09:05:11;0.45;;;0.43;;
58015;SDS011;43809;52.110;20.964;2022-07-03T09:07:11;0.80;;;0.50;;
58015;SDS011;43809;52.110;20.964;2022-07-03T09:09:13;1.70;;;0.73;;
58015;SDS011;43809;52.110;20.964;2022-07-03T09:11:13;1.40;;;0.80;;
58015;SDS011;43809;52.110;20.964;2022-07-03T09:13:13;1.70;;;0.60;;
58015;SDS011;43809;52.110;20.964;2022-07-03T09:15:14;0.60;;;0.40;;
58015;SDS011;43809;52.110;20.964;2022-07-03T09:17:14;0.90;;;0.60;;
58015;SDS011;43809;52.110;20.964;2022-07-03T09:19:14;1.90;;;0.80;;
58015;SDS011;43809;52.110;20.964;2022-07-03T09:21:15;1.00;;;0.55;;
58015;SDS011;43809;52.110;20.964;2022-07-03T09:23:19;0.88;;;0.70;;
58015;SDS011;43809;52.110;20.964;2022-07-03T09:25:19;1.33;;;0.63;;
58015;SDS011;43809;52.110;20.964;2022-07-03T09:27:21;0.77;;;0.60;;
58015;SDS011;43809;52.110;20.964;2022-07-03T09:29:21;0.98;;;0.60;;
58015;SDS011;43809;52.110;20.964;2022-07-03T09:31:23;2.70;;;0.63;;
58015;SDS011;43809;52.110;20.964;2022-07-03T09:33:24;2.05;;;0.70;;
58015;SDS011;43809;52.110;20.964;2022-07-03T09:35:25;1.53;;;0.70;;
58015;SDS011;43809;52.110;20.964;2022-07-03T09:37:51;1.92;;;0.90;;
58015;SDS011;43809;52.110;20.964;2022-07-03T09:39:55;1.77;;;0.80;;
58015;SDS011;43809;52.110;20.964;2022-07-03T09:44:29;1.02;;;0.60;;
58015;SDS011;43809;52.110;20.964;2022-07-03T09:46:33;2.22;;;0.70;;
58015;SDS011;43809;52.110;20.964;2022-07-03T09:48:37;2.00;;;0.80;;
58015;SDS011;43809;52.110;20.964;2022-07-03T09:50:38;0.65;;;0.60;;
58015;SDS011;43809;52.110;20.964;2022-07-03T09:52:39;1.13;;;0.60;;
58015;SDS011;43809;52.110;20.964;2022-07-03T09:54:39;1.13;;;0.57;;
58015;SDS011;43809;52.110;20.964;2022-07-03T09:56:40;0.77;;;0.70;;
58015;SDS011;43809;52.110;20.964;2022-07-03T09:58:41;1.83;;;0.63;;
58015;SDS011;43809;52.110;20.964;2022-07-03T10:00:41;1.20;;;0.70;;
58015;SDS011;43809;52.110;20.964;2022-07-03T10:06:58;1.60;;;0.80;;
58015;SDS011;43809;52.110;20.964;2022-07-03T10:08:58;0.73;;;0.60;;
58015;SDS011;43809;52.110;20.964;2022-07-03T10:10:58;0.63;;;0.60;;
58015;SDS011;43809;52.110;20.964;2022-07-03T10:12:59;1.15;;;0.80;;
58015;SDS011;43809;52.110;20.964;2022-07-03T10:14:59;0.98;;;0.75;;
58015;SDS011;43809;52.110;20.964;2022-07-03T10:17:00;1.23;;;0.70;;
58015;SDS011;43809;52.110;20.964;2022-07-03T10:19:02;2.50;;;0.90;;
58015;SDS011;43809;52.110;20.964;2022-07-03T10:21:05;1.92;;;0.85;;
58015;SDS011;43809;52.110;20.964;2022-07-03T10:23:05;0.88;;;0.80;;
58015;SDS011;43809;52.110;20.964;2022-07-03T10:25:06;1.70;;;0.80;;
58015;SDS011;43809;52.110;20.964;2022-07-03T10:27:06;0.52;;;0.50;;
58015;SDS011;43809;52.110;20.964;2022-07-03T10:29:07;1.88;;;1.20;;
58015;SDS011;43809;52.110;20.964;2022-07-03T10:31:08;1.33;;;0.70;;
58015;SDS011;43809;52.110;20.964;2022-07-03T10:33:08;3.45;;;0.90;;
58015;SDS011;43809;52.110;20.964;2022-07-03T10:35:08;2.43;;;0.97;;
58015;SDS011;43809;52.110;20.964;2022-07-03T10:37:09;2.75;;;0.98;;
58015;SDS011;43809;52.110;20.964;2022-07-03T10:39:11;1.38;;;0.90;;
58015;SDS011;43809;52.110;20.964;2022-07-03T10:41:19;1.40;;;0.75;;
58015;SDS011;43809;52.110;20.964;2022-07-03T10:43:40;2.00;;;0.90;;
58015;SDS011;43809;52.110;20.964;2022-07-03T10:46:15;2.05;;;0.85;;
58015;SDS011;43809;52.110;20.964;2022-07-03T10:48:15;2.70;;;1.10;;
58015;SDS011;43809;52.110;20.964;2022-07-03T10:50:17;1.03;;;0.73;;
58015;SDS011;43809;52.110;20.964;2022-07-03T10:52:18;1.02;;;0.93;;
58015;SDS011;43809;52.110;20.964;2022-07-03T10:54:19;1.52;;;0.82;;
58015;SDS011;43809;52.110;20.964;2022-07-03T10:56:19;1.40;;;0.80;;
58015;SDS011;43809;52.110;20.964;2022-07-03T10:58:19;0.90;;;0.70;;
58015;SDS011;43809;52.110;20.964;2022-07-03T11:00:19;1.07;;;0.70;;
58015;SDS011;43809;52.110;20.964;2022-07-03T11:09:05;2.13;;;0.70;;
58015;SDS011;43809;52.110;20.964;2022-07-03T11:11:05;1.73;;;0.95;;
58015;SDS011;43809;52.110;20.964;2022-07-03T11:14:17;1.17;;;0.70;;
58015;SDS011;43809;52.110;20.964;2022-07-03T11:16:02;1.20;;;0.90;;
58015;SDS011;43809;52.110;20.964;2022-07-03T11:20:24;1.05;;;0.70;;
58015;SDS011;43809;52.110;20.964;2022-07-03T11:22:24;0.85;;;0.80;;
58015;SDS011;43809;52.110;20.964;2022-07-03T11:24:29;1.48;;;0.70;;
58015;SDS011;43809;52.110;20.964;2022-07-03T11:26:34;0.75;;;0.70;;
58015;SDS011;43809;52.110;20.964;2022-07-03T11:30:34;0.90;;;0.65;;
58015;SDS011;43809;52.110;20.964;2022-07-03T11:34:48;1.05;;;0.80;;
58015;SDS011;43809;52.110;20.964;2022-07-03T11:36:48;1.00;;;0.70;;
58015;SDS011;43809;52.110;20.964;2022-07-03T11:40:56;2.47;;;0.90;;
58015;SDS011;43809;52.110;20.964;2022-07-03T11:42:56;1.08;;;0.80;;
58015;SDS011;43809;52.110;20.964;2022-07-03T11:44:59;1.15;;;0.70;;
58015;SDS011;43809;52.110;20.964;2022-07-03T11:46:59;0.77;;;0.70;;
58015;SDS011;43809;52.110;20.964;2022-07-03T11:49:10;1.10;;;0.75;;
58015;SDS011;43809;52.110;20.964;2022-07-03T11:51:10;1.65;;;1.00;;
58015;SDS011;43809;52.110;20.964;2022-07-03T11:53:17;1.15;;;0.90;;
58015;SDS011;43809;52.110;20.964;2022-07-03T11:55:17;1.35;;;0.85;;
58015;SDS011;43809;52.110;20.964;2022-07-03T11:57:18;1.77;;;0.83;;
58015;SDS011;43809;52.110;20.964;2022-07-03T11:59:18;1.33;;;0.93;;
58015;SDS011;43809;52.110;20.964;2022-07-03T12:03:28;21.52;;;1.48;;
58015;SDS011;43809;52.110;20.964;2022-07-03T12:05:28;0.80;;;0.80;;
58015;SDS011;43809;52.110;20.964;2022-07-03T12:07:28;1.77;;;0.73;;
58015;SDS011;43809;52.110;20.964;2022-07-03T12:11:30;1.17;;;1.07;;
58015;SDS011;43809;52.110;20.964;2022-07-03T12:13:30;0.70;;;0.65;;
58015;SDS011;43809;52.110;20.964;2022-07-03T12:15:31;1.08;;;0.70;;
58015;SDS011;43809;52.110;20.964;2022-07-03T12:17:31;0.73;;;0.70;;
58015;SDS011;43809;52.110;20.964;2022-07-03T12:19:31;1.77;;;0.87;;
58015;SDS011;43809;52.110;20.964;2022-07-03T12:21:35;0.70;;;0.70;;
58015;SDS011;43809;52.110;20.964;2022-07-03T12:23:55;1.35;;;0.95;;
58015;SDS011;43809;52.110;20.964;2022-07-03T12:25:55;1.65;;;1.00;;
58015;SDS011;43809;52.110;20.964;2022-07-03T12:27:55;1.30;;;0.93;;
58015;SDS011;43809;52.110;20.964;2022-07-03T12:29:56;0.73;;;0.73;;
58015;SDS011;43809;52.110;20.964;2022-07-03T12:31:56;0.98;;;0.80;;
58015;SDS011;43809;52.110;20.964;2022-07-03T12:33:57;0.70;;;0.70;;
58015;SDS011;43809;52.110;20.964;2022-07-03T12:36:02;1.60;;;1.05;;
58015;SDS011;43809;52.110;20.964;2022-07-03T12:38:02;0.90;;;0.80;;
58015;SDS011;43809;52.110;20.964;2022-07-03T12:40:05;1.00;;;0.90;;
58015;SDS011;43809;52.110;20.964;2022-07-03T12:42:13;1.60;;;1.20;;
58015;SDS011;43809;52.110;20.964;2022-07-03T12:44:13;1.67;;;1.00;;
58015;SDS011;43809;52.110;20.964;2022-07-03T12:46:19;1.15;;;1.05;;
58015;SDS011;43809;52.110;20.964;2022-07-03T12:48:19;1.15;;;0.80;;
58015;SDS011;43809;52.110;20.964;2022-07-03T12:50:20;1.60;;;0.70;;
58015;SDS011;43809;52.110;20.964;2022-07-03T12:52:20;1.40;;;0.77;;
58015;SDS011;43809;52.110;20.964;2022-07-03T12:56:26;1.55;;;1.05;;
58015;SDS011;43809;52.110;20.964;2022-07-03T12:58:26;1.17;;;0.80;;
58015;SDS011;43809;52.110;20.964;2022-07-03T13:00:47;2.10;;;0.90;;
58015;SDS011;43809;52.110;20.964;2022-07-03T13:02:49;1.55;;;0.93;;
58015;SDS011;43809;52.110;20.964;2022-07-03T13:04:50;1.17;;;0.73;;